PWSweather.com
Personal Weather Stations
Station Observations
TORPERJOSANG
Carretera De Villel SN , MochalesES 19332

Carretera De Villel SN MochalesES 19332

Lat: 41.09957, Lon: -2.012569

Elevation: 3215

Station Type: PSW-20

http://www.torresp.com

High Low Average
Temperature 80.6°F27.0°C 42.4°F5.8°C 60.0°F15.6°C
Dew Point 51.1°F10.6°C 28.1°F-2.2°C 40.1°F4.5°C
Winds 12.7 mph 20.4 kmh Calm Calm 4.0 mph WSW6.4 kmh WSW
Wind Gusts 16.1 mph25.9 kmh -- 6.0 mph9.7 kmh
Humidity 86% 15% 54%
Pressure 30.21 in1023.0 mb 30.03 in1016.9 mb -
Precipitation 0.00 in0.0 mm - -
Hour Temp Dew Point Humidity Winds Wind Gusts Pressure Precip Precip Rate Daily Precip Total
12:00 AM 51.1°F10.6°C 40.1°F4.5°C 66% 5.8 mph NW9.3 kmh NW 6.9 mph11.1 kmh 30.09 in1019.0 mb - 0.00 in0.0 mm 0.00 in0.0 mm
12:10 AM 50.9°F10.5°C 40.3°F4.6°C 67% 3.5 mph SW5.6 kmh SW 6.9 mph11.1 kmh 30.09 in1019.0 mb - 0.00 in0.0 mm 0.00 in0.0 mm
12:15 AM 50.9°F10.5°C 40.3°F4.6°C 67% 3.5 mph NW5.6 kmh NW 4.6 mph7.4 kmh 30.09 in1019.0 mb - 0.00 in0.0 mm 0.00 in0.0 mm
12:20 AM 50.7°F10.4°C 40.2°F4.6°C 67% 3.5 mph NW5.6 kmh NW 5.8 mph9.3 kmh 30.09 in1019.0 mb - 0.00 in0.0 mm 0.00 in0.0 mm
12:25 AM 50.5°F10.3°C 40.0°F4.4°C 67% 3.5 mph W5.6 kmh W 5.8 mph9.3 kmh 30.09 in1019.0 mb - 0.00 in0.0 mm 0.00 in0.0 mm
12:30 AM 50.2°F10.1°C 40.0°F4.4°C 68% 4.6 mph W7.4 kmh W 6.9 mph11.1 kmh 30.09 in1019.0 mb - 0.00 in0.0 mm 0.00 in0.0 mm
12:35 AM 50.0°F10.0°C 39.8°F4.3°C 68% 4.6 mph NW7.4 kmh NW 6.9 mph11.1 kmh 30.09 in1019.0 mb - 0.00 in0.0 mm 0.00 in0.0 mm
12:40 AM 49.8°F9.9°C 40.4°F4.7°C 70% 5.8 mph W9.3 kmh W 6.9 mph11.1 kmh 30.09 in1019.0 mb - 0.00 in0.0 mm 0.00 in0.0 mm
12:45 AM 49.5°F9.7°C 40.1°F4.5°C 70% 3.5 mph W5.6 kmh W 5.8 mph9.3 kmh 30.09 in1019.0 mb - 0.00 in0.0 mm 0.00 in0.0 mm
12:50 AM 49.3°F9.6°C 39.9°F4.4°C 70% 4.6 mph NW7.4 kmh NW 5.8 mph9.3 kmh 30.09 in1019.0 mb - 0.00 in0.0 mm 0.00 in0.0 mm
12:55 AM 49.1°F9.5°C 40.1°F4.5°C 71% 5.8 mph W9.3 kmh W 8.1 mph13.0 kmh 30.09 in1019.0 mb - 0.00 in0.0 mm 0.00 in0.0 mm
01:00 AM 49.1°F9.5°C 40.1°F4.5°C 71% 5.8 mph W9.3 kmh W 8.1 mph13.0 kmh 30.09 in1019.0 mb - 0.00 in0.0 mm 0.00 in0.0 mm
01:10 AM 49.1°F9.5°C 40.1°F4.5°C 71% 5.8 mph W9.3 kmh W 6.9 mph11.1 kmh 30.12 in1020.0 mb - 0.00 in0.0 mm 0.00 in0.0 mm
01:15 AM 48.7°F9.3°C 40.1°F4.5°C 72% 6.9 mph NW11.1 kmh NW 8.1 mph13.0 kmh 30.12 in1020.0 mb - 0.00 in0.0 mm 0.00 in0.0 mm
01:20 AM 48.6°F9.2°C 40.3°F4.6°C 73% 4.6 mph SW7.4 kmh SW 8.1 mph13.0 kmh 30.12 in1020.0 mb - 0.00 in0.0 mm 0.00 in0.0 mm
01:25 AM 48.6°F9.2°C 39.9°F4.4°C 72% 5.8 mph NW9.3 kmh NW 8.1 mph13.0 kmh 30.12 in1020.0 mb - 0.00 in0.0 mm 0.00 in0.0 mm
01:30 AM 48.6°F9.2°C 39.9°F4.4°C 72% 6.9 mph SW11.1 kmh SW 8.1 mph13.0 kmh 30.12 in1020.0 mb - 0.00 in0.0 mm 0.00 in0.0 mm
01:35 AM 48.4°F9.1°C 39.8°F4.3°C 72% 4.6 mph WSW7.4 kmh WSW 6.9 mph11.1 kmh 30.12 in1020.0 mb - 0.00 in0.0 mm 0.00 in0.0 mm
01:40 AM 48.2°F9.0°C 39.6°F4.2°C 72% 2.3 mph SW3.7 kmh SW 5.8 mph9.3 kmh 30.12 in1020.0 mb - 0.00 in0.0 mm 0.00 in0.0 mm
01:45 AM 48.0°F8.9°C 39.8°F4.3°C 73% 5.8 mph W9.3 kmh W 6.9 mph11.1 kmh 30.12 in1020.0 mb - 0.00 in0.0 mm 0.00 in0.0 mm
01:50 AM 48.0°F8.9°C 39.8°F4.3°C 73% 5.8 mph W9.3 kmh W 6.9 mph11.1 kmh 30.12 in1020.0 mb - 0.00 in0.0 mm 0.00 in0.0 mm
01:55 AM 47.9°F8.8°C 39.6°F4.2°C 73% 5.8 mph NW9.3 kmh NW 8.1 mph13.0 kmh 30.12 in1020.0 mb - 0.00 in0.0 mm 0.00 in0.0 mm
02:00 AM 48.0°F8.9°C 39.8°F4.3°C 73% 5.8 mph NW9.3 kmh NW 8.1 mph13.0 kmh 30.12 in1020.0 mb - 0.00 in0.0 mm 0.00 in0.0 mm
02:10 AM 47.7°F8.7°C 39.4°F4.1°C 73% 5.8 mph WSW9.3 kmh WSW 6.9 mph11.1 kmh 30.12 in1020.0 mb - 0.00 in0.0 mm 0.00 in0.0 mm
02:15 AM 47.7°F8.7°C 39.4°F4.1°C 73% 4.6 mph NW7.4 kmh NW 8.1 mph13.0 kmh 30.12 in1020.0 mb - 0.00 in0.0 mm 0.00 in0.0 mm
02:20 AM 47.5°F8.6°C 39.6°F4.2°C 74% 4.6 mph W7.4 kmh W 8.1 mph13.0 kmh 30.12 in1020.0 mb - 0.00 in0.0 mm 0.00 in0.0 mm
02:25 AM 47.5°F8.6°C 39.6°F4.2°C 74% 3.5 mph WSW5.6 kmh WSW 5.8 mph9.3 kmh 30.12 in1020.0 mb - 0.00 in0.0 mm 0.00 in0.0 mm
02:30 AM 47.3°F8.5°C 39.4°F4.1°C 74% 4.6 mph W7.4 kmh W 5.8 mph9.3 kmh 30.12 in1020.0 mb - 0.00 in0.0 mm 0.00 in0.0 mm
02:35 AM 47.3°F8.5°C 39.4°F4.1°C 74% 5.8 mph NW9.3 kmh NW 8.1 mph13.0 kmh 30.12 in1020.0 mb - 0.00 in0.0 mm 0.00 in0.0 mm
02:40 AM 47.1°F8.4°C 39.6°F4.2°C 75% 6.9 mph W11.1 kmh W 9.2 mph14.8 kmh 30.12 in1020.0 mb - 0.00 in0.0 mm 0.00 in0.0 mm
02:45 AM 46.9°F8.3°C 39.4°F4.1°C 75% 5.8 mph WSW9.3 kmh WSW 8.1 mph13.0 kmh 30.12 in1020.0 mb - 0.00 in0.0 mm 0.00 in0.0 mm
02:50 AM 46.9°F8.3°C 39.4°F4.1°C 75% 6.9 mph NW11.1 kmh NW 8.1 mph13.0 kmh 30.12 in1020.0 mb - 0.00 in0.0 mm 0.00 in0.0 mm
02:55 AM 47.1°F8.4°C 39.6°F4.2°C 75% 3.5 mph NW5.6 kmh NW 6.9 mph11.1 kmh 30.12 in1020.0 mb - 0.00 in0.0 mm 0.00 in0.0 mm
03:00 AM 46.9°F8.3°C 39.1°F3.9°C 74% 2.3 mph W3.7 kmh W 4.6 mph7.4 kmh 30.12 in1020.0 mb - 0.00 in0.0 mm 0.00 in0.0 mm
03:10 AM 46.6°F8.1°C 39.1°F3.9°C 75% 3.5 mph WSW5.6 kmh WSW 4.6 mph7.4 kmh 30.12 in1020.0 mb - 0.00 in0.0 mm 0.00 in0.0 mm
03:15 AM 46.6°F8.1°C 39.1°F3.9°C 75% 3.5 mph WSW5.6 kmh WSW 5.8 mph9.3 kmh 30.12 in1020.0 mb - 0.00 in0.0 mm 0.00 in0.0 mm
03:20 AM 46.6°F8.1°C 39.1°F3.9°C 75% 8.1 mph NW13.0 kmh NW 10.4 mph16.7 kmh 30.12 in1020.0 mb - 0.00 in0.0 mm 0.00 in0.0 mm
03:25 AM 46.6°F8.1°C 39.4°F4.1°C 76% 9.2 mph NW14.8 kmh NW 10.4 mph16.7 kmh 30.12 in1020.0 mb - 0.00 in0.0 mm 0.00 in0.0 mm
03:30 AM 46.4°F8.0°C 39.3°F4.1°C 76% 5.8 mph W9.3 kmh W 9.2 mph14.8 kmh 30.12 in1020.0 mb - 0.00 in0.0 mm 0.00 in0.0 mm
03:35 AM 46.4°F8.0°C 39.6°F4.2°C 77% 6.9 mph NW11.1 kmh NW 10.4 mph16.7 kmh 30.12 in1020.0 mb - 0.00 in0.0 mm 0.00 in0.0 mm
03:40 AM 46.2°F7.9°C 39.4°F4.1°C 77% 8.1 mph W13.0 kmh W 9.2 mph14.8 kmh 30.12 in1020.0 mb - 0.00 in0.0 mm 0.00 in0.0 mm
03:45 AM 46.4°F8.0°C 39.2°F4.0°C 76% 5.8 mph W9.3 kmh W 8.1 mph13.0 kmh 30.12 in1020.0 mb - 0.00 in0.0 mm 0.00 in0.0 mm
03:50 AM 46.4°F8.0°C 39.2°F4.0°C 76% 8.1 mph W13.0 kmh W 11.5 mph18.5 kmh 30.12 in1020.0 mb - 0.00 in0.0 mm 0.00 in0.0 mm
03:55 AM 46.4°F8.0°C 38.9°F3.8°C 75% 6.9 mph W11.1 kmh W 10.4 mph16.7 kmh 30.12 in1020.0 mb - 0.00 in0.0 mm 0.00 in0.0 mm
04:00 AM 46.1°F7.8°C 38.6°F3.7°C 75% 8.1 mph NW13.0 kmh NW 10.4 mph16.7 kmh 30.12 in1020.0 mb - 0.00 in0.0 mm 0.00 in0.0 mm
04:10 AM 45.9°F7.7°C 38.7°F3.7°C 76% 5.8 mph W9.3 kmh W 10.4 mph16.7 kmh 30.12 in1020.0 mb - 0.00 in0.0 mm 0.00 in0.0 mm
04:15 AM 45.9°F7.7°C 38.7°F3.7°C 76% 5.8 mph NW9.3 kmh NW 8.1 mph13.0 kmh 30.12 in1020.0 mb - 0.00 in0.0 mm 0.00 in0.0 mm
04:20 AM 45.9°F7.7°C 38.7°F3.7°C 76% 3.5 mph W5.6 kmh W 8.1 mph13.0 kmh 30.12 in1020.0 mb - 0.00 in0.0 mm 0.00 in0.0 mm
04:25 AM 45.9°F7.7°C 38.4°F3.6°C 75% 3.5 mph W5.6 kmh W 6.9 mph11.1 kmh 30.12 in1020.0 mb - 0.00 in0.0 mm 0.00 in0.0 mm
04:30 AM 45.7°F7.6°C 38.2°F3.4°C 75% 2.3 mph SW3.7 kmh SW 4.6 mph7.4 kmh 30.12 in1020.0 mb - 0.00 in0.0 mm 0.00 in0.0 mm
04:35 AM 45.5°F7.5°C 38.0°F3.3°C 75% 3.5 mph W5.6 kmh W 3.5 mph5.6 kmh 30.12 in1020.0 mb - 0.00 in0.0 mm 0.00 in0.0 mm
04:40 AM 45.1°F7.3°C 37.7°F3.2°C 75% 4.6 mph W7.4 kmh W 5.8 mph9.3 kmh 30.12 in1020.0 mb - 0.00 in0.0 mm 0.00 in0.0 mm
04:45 AM 44.8°F7.1°C 37.3°F2.9°C 75% 3.5 mph W5.6 kmh W 5.8 mph9.3 kmh 30.12 in1020.0 mb - 0.00 in0.0 mm 0.00 in0.0 mm
04:50 AM 44.8°F7.1°C 37.3°F2.9°C 75% 2.3 mph W3.7 kmh W 3.5 mph5.6 kmh 30.12 in1020.0 mb - 0.00 in0.0 mm 0.00 in0.0 mm
04:55 AM 44.6°F7.0°C 37.5°F3.1°C 76% 2.3 mph SW3.7 kmh SW 4.6 mph7.4 kmh 30.12 in1020.0 mb - 0.00 in0.0 mm 0.00 in0.0 mm
05:00 AM 44.4°F6.9°C 37.7°F3.2°C 77% 3.5 mph NW5.6 kmh NW 4.6 mph7.4 kmh 30.12 in1020.0 mb - 0.00 in0.0 mm 0.00 in0.0 mm
05:10 AM 44.2°F6.8°C 38.5°F3.6°C 80% 3.5 mph SW5.6 kmh SW 5.8 mph9.3 kmh 30.15 in1021.0 mb - 0.00 in0.0 mm 0.00 in0.0 mm
05:15 AM 44.2°F6.8°C 38.8°F3.8°C 81% 3.5 mph NW5.6 kmh NW 6.9 mph11.1 kmh 30.15 in1021.0 mb - 0.00 in0.0 mm 0.00 in0.0 mm
05:20 AM 44.1°F6.7°C 38.6°F3.7°C 81% 5.8 mph NW9.3 kmh NW 8.1 mph13.0 kmh 30.15 in1021.0 mb - 0.00 in0.0 mm 0.00 in0.0 mm
05:25 AM 44.1°F6.7°C 38.9°F3.8°C 82% 3.5 mph WSW5.6 kmh WSW 6.9 mph11.1 kmh 30.15 in1021.0 mb - 0.00 in0.0 mm 0.00 in0.0 mm
05:30 AM 44.1°F6.7°C 38.9°F3.8°C 82% 3.5 mph SW5.6 kmh SW 5.8 mph9.3 kmh 30.15 in1021.0 mb - 0.00 in0.0 mm 0.00 in0.0 mm
05:35 AM 43.9°F6.6°C 38.7°F3.7°C 82% 3.5 mph WSW5.6 kmh WSW 5.8 mph9.3 kmh 30.15 in1021.0 mb - 0.00 in0.0 mm 0.00 in0.0 mm
05:40 AM 43.9°F6.6°C 38.7°F3.7°C 82% 3.5 mph NW5.6 kmh NW 4.6 mph7.4 kmh 30.15 in1021.0 mb - 0.00 in0.0 mm 0.00 in0.0 mm
05:45 AM 43.7°F6.5°C 38.6°F3.7°C 82% 5.8 mph W9.3 kmh W 6.9 mph11.1 kmh 30.15 in1021.0 mb - 0.00 in0.0 mm 0.00 in0.0 mm
05:50 AM 43.7°F6.5°C 38.6°F3.7°C 82% 4.6 mph W7.4 kmh W 6.9 mph11.1 kmh 30.15 in1021.0 mb - 0.00 in0.0 mm 0.00 in0.0 mm
05:55 AM 43.7°F6.5°C 38.6°F3.7°C 82% 4.6 mph SW7.4 kmh SW 8.1 mph13.0 kmh 30.15 in1021.0 mb - 0.00 in0.0 mm 0.00 in0.0 mm
06:00 AM 43.5°F6.4°C 38.4°F3.6°C 82% 4.6 mph NW7.4 kmh NW 5.8 mph9.3 kmh 30.15 in1021.0 mb - 0.00 in0.0 mm 0.00 in0.0 mm
06:10 AM 43.3°F6.3°C 38.2°F3.4°C 82% 5.8 mph NW9.3 kmh NW 8.1 mph13.0 kmh 30.15 in1021.0 mb - 0.00 in0.0 mm 0.00 in0.0 mm
06:15 AM 43.2°F6.2°C 38.0°F3.3°C 82% 3.5 mph W5.6 kmh W 8.1 mph13.0 kmh 30.15 in1021.0 mb - 0.00 in0.0 mm 0.00 in0.0 mm
06:20 AM 43.2°F6.2°C 38.3°F3.5°C 83% 3.5 mph NW5.6 kmh NW 5.8 mph9.3 kmh 30.15 in1021.0 mb - 0.00 in0.0 mm 0.00 in0.0 mm
06:25 AM 43.0°F6.1°C 38.2°F3.4°C 83% 3.5 mph SW5.6 kmh SW 4.6 mph7.4 kmh 30.15 in1021.0 mb - 0.00 in0.0 mm 0.00 in0.0 mm
06:30 AM 42.8°F6.0°C 38.0°F3.3°C 83% 4.6 mph SW7.4 kmh SW 5.8 mph9.3 kmh 30.15 in1021.0 mb - 0.00 in0.0 mm 0.00 in0.0 mm
06:35 AM 42.8°F6.0°C 38.0°F3.3°C 83% 5.8 mph W9.3 kmh W 5.8 mph9.3 kmh 30.15 in1021.0 mb - 0.00 in0.0 mm 0.00 in0.0 mm
06:40 AM 42.8°F6.0°C 38.0°F3.3°C 83% 5.8 mph WSW9.3 kmh WSW 8.1 mph13.0 kmh 30.15 in1021.0 mb - 0.00 in0.0 mm 0.00 in0.0 mm
06:50 AM 42.5°F5.8°C 38.0°F3.3°C 84% 5.8 mph W9.3 kmh W 6.9 mph11.1 kmh 30.15 in1021.0 mb - 0.00 in0.0 mm 0.00 in0.0 mm
06:55 AM 42.4°F5.8°C 38.2°F3.4°C 85% 5.8 mph W9.3 kmh W 8.1 mph13.0 kmh 30.15 in1021.0 mb - 0.00 in0.0 mm 0.00 in0.0 mm
07:00 AM 42.4°F5.8°C 38.2°F3.4°C 85% 5.8 mph W9.3 kmh W 8.1 mph13.0 kmh 30.15 in1021.0 mb - 0.00 in0.0 mm 0.00 in0.0 mm
07:10 AM 42.4°F5.8°C 38.2°F3.4°C 85% 5.8 mph W9.3 kmh W 8.1 mph13.0 kmh 30.15 in1021.0 mb - 0.00 in0.0 mm 0.00 in0.0 mm
07:15 AM 42.6°F5.9°C 38.4°F3.6°C 85% 3.5 mph WSW5.6 kmh WSW 5.8 mph9.3 kmh 30.15 in1021.0 mb - 0.00 in0.0 mm 0.00 in0.0 mm
07:20 AM 42.6°F5.9°C 38.4°F3.6°C 85% 3.5 mph SW5.6 kmh SW 4.6 mph7.4 kmh 30.15 in1021.0 mb - 0.00 in0.0 mm 0.00 in0.0 mm
07:25 AM 42.4°F5.8°C 38.2°F3.4°C 85% 5.8 mph W9.3 kmh W 9.2 mph14.8 kmh 30.15 in1021.0 mb - 0.00 in0.0 mm 0.00 in0.0 mm
07:30 AM 42.4°F5.8°C 38.2°F3.4°C 85% 4.6 mph W7.4 kmh W 8.1 mph13.0 kmh 30.15 in1021.0 mb - 0.00 in0.0 mm 0.00 in0.0 mm
07:35 AM 42.4°F5.8°C 38.2°F3.4°C 85% 3.5 mph W5.6 kmh W 4.6 mph7.4 kmh 30.15 in1021.0 mb - 0.00 in0.0 mm 0.00 in0.0 mm
07:40 AM 42.4°F5.8°C 38.2°F3.4°C 85% 4.6 mph NW7.4 kmh NW 5.8 mph9.3 kmh 30.15 in1021.0 mb - 0.00 in0.0 mm 0.00 in0.0 mm
07:45 AM 42.4°F5.8°C 38.2°F3.4°C 85% 4.6 mph SW7.4 kmh SW 6.9 mph11.1 kmh 30.15 in1021.0 mb - 0.00 in0.0 mm 0.00 in0.0 mm
07:50 AM 42.4°F5.8°C 38.2°F3.4°C 85% 5.8 mph W9.3 kmh W 8.1 mph13.0 kmh 30.15 in1021.0 mb - 0.00 in0.0 mm 0.00 in0.0 mm
07:55 AM 42.4°F5.8°C 38.5°F3.6°C 86% 5.8 mph SW9.3 kmh SW 8.1 mph13.0 kmh 30.15 in1021.0 mb - 0.00 in0.0 mm 0.00 in0.0 mm
08:00 AM 42.6°F5.9°C 38.7°F3.7°C 86% 4.6 mph NW7.4 kmh NW 6.9 mph11.1 kmh 30.15 in1021.0 mb - 0.00 in0.0 mm 0.00 in0.0 mm
08:10 AM 43.5°F6.4°C 39.3°F4.1°C 85% 5.8 mph SW9.3 kmh SW 8.1 mph13.0 kmh 30.15 in1021.0 mb - 0.00 in0.0 mm 0.00 in0.0 mm
08:15 AM 44.0°F6.7°C 39.8°F4.3°C 85% 5.8 mph NW9.3 kmh NW 8.1 mph13.0 kmh 30.15 in1021.0 mb - 0.00 in0.0 mm 0.00 in0.0 mm
08:20 AM 44.6°F7.0°C 40.1°F4.5°C 84% 4.6 mph W7.4 kmh W 6.9 mph11.1 kmh 30.15 in1021.0 mb - 0.00 in0.0 mm 0.00 in0.0 mm
08:25 AM 45.1°F7.3°C 40.3°F4.6°C 83% 3.5 mph SW5.6 kmh SW 6.9 mph11.1 kmh 30.15 in1021.0 mb - 0.00 in0.0 mm 0.00 in0.0 mm
08:30 AM 45.7°F7.6°C 40.8°F4.9°C 83% 5.8 mph W9.3 kmh W 8.1 mph13.0 kmh 30.15 in1021.0 mb - 0.00 in0.0 mm 0.00 in0.0 mm
08:35 AM 46.4°F8.0°C 41.2°F5.1°C 82% 3.5 mph WNW5.6 kmh WNW 5.8 mph9.3 kmh 30.15 in1021.0 mb - 0.00 in0.0 mm 0.00 in0.0 mm
08:40 AM 46.9°F8.3°C 41.4°F5.2°C 81% 3.5 mph W5.6 kmh W 4.6 mph7.4 kmh 30.15 in1021.0 mb - 0.00 in0.0 mm 0.00 in0.0 mm
08:45 AM 47.6°F8.7°C 42.1°F5.6°C 81% 3.5 mph W5.6 kmh W 6.9 mph11.1 kmh 30.15 in1021.0 mb - 0.00 in0.0 mm 0.00 in0.0 mm
08:50 AM 48.4°F9.1°C 42.2°F5.7°C 79% 4.6 mph W7.4 kmh W 5.8 mph9.3 kmh 30.15 in1021.0 mb - 0.00 in0.0 mm 0.00 in0.0 mm
08:55 AM 49.1°F9.5°C 42.5°F5.8°C 78% 4.6 mph W7.4 kmh W 5.8 mph9.3 kmh 30.15 in1021.0 mb - 0.00 in0.0 mm 0.00 in0.0 mm
09:00 AM 49.8°F9.9°C 42.9°F6.1°C 77% 4.6 mph W7.4 kmh W 6.9 mph11.1 kmh 30.15 in1021.0 mb - 0.00 in0.0 mm 0.00 in0.0 mm
09:10 AM 51.4°F10.8°C 43.4°F6.3°C 74% 3.5 mph W5.6 kmh W 4.6 mph7.4 kmh 30.18 in1022.0 mb - 0.00 in0.0 mm 0.00 in0.0 mm
09:15 AM 52.3°F11.3°C 43.9°F6.6°C 73% 1.2 mph NW1.9 kmh NW 3.5 mph5.6 kmh 30.18 in1022.0 mb - 0.00 in0.0 mm 0.00 in0.0 mm
09:20 AM 53.2°F11.8°C 44.8°F7.1°C 73% 2.3 mph SW3.7 kmh SW 3.5 mph5.6 kmh 30.18 in1022.0 mb - 0.00 in0.0 mm 0.00 in0.0 mm
09:25 AM 54.3°F12.4°C 45.1°F7.3°C 71% 1.2 mph SW1.9 kmh SW 3.5 mph5.6 kmh 30.18 in1022.0 mb - 0.00 in0.0 mm 0.00 in0.0 mm
09:30 AM 55.4°F13.0°C 45.4°F7.4°C 69% 1.2 mph W1.9 kmh W 3.5 mph5.6 kmh 30.18 in1022.0 mb - 0.00 in0.0 mm 0.00 in0.0 mm
09:35 AM 56.5°F13.6°C 46.4°F8.0°C 69% 2.3 mph W3.7 kmh W 3.5 mph5.6 kmh 30.18 in1022.0 mb - 0.00 in0.0 mm 0.00 in0.0 mm
09:40 AM 57.5°F14.2°C 46.7°F8.2°C 67% 1.2 mph SW1.9 kmh SW 3.5 mph5.6 kmh 30.18 in1022.0 mb - 0.00 in0.0 mm 0.00 in0.0 mm
09:45 AM 58.6°F14.8°C 47.7°F8.7°C 67% 1.2 mph S1.9 kmh S 2.3 mph3.7 kmh 30.18 in1022.0 mb - 0.00 in0.0 mm 0.00 in0.0 mm
09:50 AM 59.9°F15.5°C 48.5°F9.2°C 66% 1.2 mph S1.9 kmh S 2.3 mph3.7 kmh 30.18 in1022.0 mb - 0.00 in0.0 mm 0.00 in0.0 mm
09:55 AM 61.0°F16.1°C 48.7°F9.3°C 64% 1.2 mph S1.9 kmh S 1.2 mph1.9 kmh 30.18 in1022.0 mb - 0.00 in0.0 mm 0.00 in0.0 mm
10:00 AM 62.2°F16.8°C 49.5°F9.7°C 63% 1.2 mph SW1.9 kmh SW 1.2 mph1.9 kmh 30.18 in1022.0 mb - 0.00 in0.0 mm 0.00 in0.0 mm
10:10 AM 64.4°F18.0°C 50.2°F10.1°C 60% 2.3 mph S3.7 kmh S 3.5 mph5.6 kmh 30.18 in1022.0 mb - 0.00 in0.0 mm 0.00 in0.0 mm
10:15 AM 65.1°F18.4°C 50.4°F10.2°C 59% 3.5 mph E5.6 kmh E 5.8 mph9.3 kmh 30.18 in1022.0 mb - 0.00 in0.0 mm 0.00 in0.0 mm
10:20 AM 65.5°F18.6°C 50.3°F10.2°C 58% 2.3 mph SE3.7 kmh SE 3.5 mph5.6 kmh 30.18 in1022.0 mb - 0.00 in0.0 mm 0.00 in0.0 mm
10:25 AM 65.8°F18.8°C 51.1°F10.6°C 59% 3.5 mph SE5.6 kmh SE 5.8 mph9.3 kmh 30.18 in1022.0 mb - 0.00 in0.0 mm 0.00 in0.0 mm
10:30 AM 66.2°F19.0°C 50.0°F10.0°C 56% 4.6 mph E7.4 kmh E 5.8 mph9.3 kmh 30.18 in1022.0 mb - 0.00 in0.0 mm 0.00 in0.0 mm
10:35 AM 66.4°F19.1°C 50.2°F10.1°C 56% 3.5 mph SE5.6 kmh SE 5.8 mph9.3 kmh 30.18 in1022.0 mb - 0.00 in0.0 mm 0.00 in0.0 mm
10:40 AM 66.7°F19.3°C 50.5°F10.3°C 56% 3.5 mph E5.6 kmh E 4.6 mph7.4 kmh 30.18 in1022.0 mb - 0.00 in0.0 mm 0.00 in0.0 mm
10:45 AM 67.4°F19.7°C 50.7°F10.4°C 55% 3.5 mph E5.6 kmh E 5.8 mph9.3 kmh 30.18 in1022.0 mb - 0.00 in0.0 mm 0.00 in0.0 mm
10:50 AM 67.6°F19.8°C 50.4°F10.2°C 54% 3.5 mph ESE5.6 kmh ESE 5.8 mph9.3 kmh 30.18 in1022.0 mb - 0.00 in0.0 mm 0.00 in0.0 mm
10:55 AM 67.8°F19.9°C 51.1°F10.6°C 55% 3.5 mph E5.6 kmh E 5.8 mph9.3 kmh 30.18 in1022.0 mb - 0.00 in0.0 mm 0.00 in0.0 mm
11:00 AM 68.2°F20.1°C 50.4°F10.2°C 53% 3.5 mph E5.6 kmh E 5.8 mph9.3 kmh 30.18 in1022.0 mb - 0.00 in0.0 mm 0.00 in0.0 mm
11:10 AM 68.5°F20.3°C 50.7°F10.4°C 53% 2.3 mph E3.7 kmh E 4.6 mph7.4 kmh 30.21 in1023.0 mb - 0.00 in0.0 mm 0.00 in0.0 mm
11:15 AM 68.9°F20.5°C 51.1°F10.6°C 53% 4.6 mph E7.4 kmh E 6.9 mph11.1 kmh 30.21 in1023.0 mb - 0.00 in0.0 mm 0.00 in0.0 mm
11:20 AM 69.1°F20.6°C 50.2°F10.1°C 51% 3.5 mph E5.6 kmh E 6.9 mph11.1 kmh 30.21 in1023.0 mb - 0.00 in0.0 mm 0.00 in0.0 mm
11:25 AM 69.3°F20.7°C 50.4°F10.2°C 51% 5.8 mph ENE9.3 kmh ENE 6.9 mph11.1 kmh 30.21 in1023.0 mb - 0.00 in0.0 mm 0.00 in0.0 mm
11:30 AM 69.4°F20.8°C 50.5°F10.3°C 51% 4.6 mph E7.4 kmh E 6.9 mph11.1 kmh 30.21 in1023.0 mb - 0.00 in0.0 mm 0.00 in0.0 mm
11:35 AM 69.8°F21.0°C 49.8°F9.9°C 49% 5.8 mph E9.3 kmh E 8.1 mph13.0 kmh 30.21 in1023.0 mb - 0.00 in0.0 mm 0.00 in0.0 mm
11:40 AM 70.3°F21.3°C 49.1°F9.5°C 47% 6.9 mph ESE11.1 kmh ESE 8.1 mph13.0 kmh 30.21 in1023.0 mb - 0.00 in0.0 mm 0.00 in0.0 mm
11:45 AM 70.7°F21.5°C 50.0°F10.0°C 48% 3.5 mph E5.6 kmh E 5.8 mph9.3 kmh 30.21 in1023.0 mb - 0.00 in0.0 mm 0.00 in0.0 mm
11:50 AM 71.1°F21.7°C 49.2°F9.6°C 46% 5.8 mph E9.3 kmh E 8.1 mph13.0 kmh 30.21 in1023.0 mb - 0.00 in0.0 mm 0.00 in0.0 mm
11:55 AM 71.6°F22.0°C 49.7°F9.8°C 46% 6.9 mph E11.1 kmh E 9.2 mph14.8 kmh 30.21 in1023.0 mb - 0.00 in0.0 mm 0.00 in0.0 mm
12:00 PM 71.8°F22.1°C 49.3°F9.6°C 45% 3.5 mph E5.6 kmh E 5.8 mph9.3 kmh 30.21 in1023.0 mb - 0.00 in0.0 mm 0.00 in0.0 mm
12:10 PM 72.7°F22.6°C 49.5°F9.7°C 44% 3.5 mph E5.6 kmh E 5.8 mph9.3 kmh 30.18 in1022.0 mb - 0.00 in0.0 mm 0.00 in0.0 mm
12:15 PM 73.2°F22.9°C 50.6°F10.3°C 45% 3.5 mph E5.6 kmh E 6.9 mph11.1 kmh 30.18 in1022.0 mb - 0.00 in0.0 mm 0.00 in0.0 mm
12:20 PM 73.8°F23.2°C 51.1°F10.6°C 45% 6.9 mph NE11.1 kmh NE 10.4 mph16.7 kmh 30.18 in1022.0 mb - 0.00 in0.0 mm 0.00 in0.0 mm
12:25 PM 73.9°F23.3°C 50.0°F10.0°C 43% 5.8 mph E9.3 kmh E 6.9 mph11.1 kmh 30.18 in1022.0 mb - 0.00 in0.0 mm 0.00 in0.0 mm
12:30 PM 74.1°F23.4°C 50.2°F10.1°C 43% 3.5 mph ENE5.6 kmh ENE 6.9 mph11.1 kmh 30.18 in1022.0 mb - 0.00 in0.0 mm 0.00 in0.0 mm
12:35 PM 74.5°F23.6°C 48.6°F9.2°C 40% 3.5 mph E5.6 kmh E 8.1 mph13.0 kmh 30.18 in1022.0 mb - 0.00 in0.0 mm 0.00 in0.0 mm
12:40 PM 74.7°F23.7°C 49.4°F9.7°C 41% 5.8 mph S9.3 kmh S 10.4 mph16.7 kmh 30.18 in1022.0 mb - 0.00 in0.0 mm 0.00 in0.0 mm
12:45 PM 74.8°F23.8°C 48.9°F9.4°C 40% 1.2 mph E1.9 kmh E 5.8 mph9.3 kmh 30.18 in1022.0 mb - 0.00 in0.0 mm 0.00 in0.0 mm
12:50 PM 74.8°F23.8°C 48.9°F9.4°C 40% 3.5 mph E5.6 kmh E 5.8 mph9.3 kmh 30.18 in1022.0 mb - 0.00 in0.0 mm 0.00 in0.0 mm
12:55 PM 75.0°F23.9°C 49.1°F9.5°C 40% 2.3 mph E3.7 kmh E 5.8 mph9.3 kmh 30.18 in1022.0 mb - 0.00 in0.0 mm 0.00 in0.0 mm
01:00 PM 75.2°F24.0°C 47.8°F8.8°C 38% 1.2 mph ENE1.9 kmh ENE 5.8 mph9.3 kmh 30.18 in1022.0 mb - 0.00 in0.0 mm 0.00 in0.0 mm
01:10 PM 76.3°F24.6°C 50.2°F10.1°C 40% 2.3 mph NE3.7 kmh NE 3.5 mph5.6 kmh 30.18 in1022.0 mb - 0.00 in0.0 mm 0.00 in0.0 mm
01:15 PM 77.0°F25.0°C 46.5°F8.1°C 34% 3.5 mph E5.6 kmh E 5.8 mph9.3 kmh 30.18 in1022.0 mb - 0.00 in0.0 mm 0.00 in0.0 mm
01:20 PM 77.5°F25.3°C 48.5°F9.2°C 36% 6.9 mph SE11.1 kmh SE 9.2 mph14.8 kmh 30.18 in1022.0 mb - 0.00 in0.0 mm 0.00 in0.0 mm
01:25 PM 77.5°F25.3°C 45.3°F7.4°C 32% 3.5 mph ENE5.6 kmh ENE 12.7 mph20.4 kmh 30.18 in1022.0 mb - 0.00 in0.0 mm 0.00 in0.0 mm
01:30 PM 77.7°F25.4°C 43.8°F6.6°C 30% 5.8 mph SW9.3 kmh SW 6.9 mph11.1 kmh 30.18 in1022.0 mb - 0.00 in0.0 mm 0.00 in0.0 mm
01:35 PM 78.4°F25.8°C 40.7°F4.8°C 26% 8.1 mph NW13.0 kmh NW 12.7 mph20.4 kmh 30.18 in1022.0 mb - 0.00 in0.0 mm 0.00 in0.0 mm
01:40 PM 78.4°F25.8°C 40.7°F4.8°C 26% 3.5 mph WSW5.6 kmh WSW 6.9 mph11.1 kmh 30.18 in1022.0 mb - 0.00 in0.0 mm 0.00 in0.0 mm
01:45 PM 78.8°F26.0°C 37.8°F3.2°C 23% 8.1 mph NW13.0 kmh NW 12.7 mph20.4 kmh 30.18 in1022.0 mb - 0.00 in0.0 mm 0.00 in0.0 mm
01:50 PM 78.8°F26.0°C 36.7°F2.6°C 22% 3.5 mph W5.6 kmh W 5.8 mph9.3 kmh 30.18 in1022.0 mb - 0.00 in0.0 mm 0.00 in0.0 mm
01:55 PM 79.0°F26.1°C 38.0°F3.3°C 23% 3.5 mph W5.6 kmh W 5.8 mph9.3 kmh 30.18 in1022.0 mb - 0.00 in0.0 mm 0.00 in0.0 mm
02:00 PM 79.2°F26.2°C 37.0°F2.8°C 22% 8.1 mph NW13.0 kmh NW 12.7 mph20.4 kmh 30.18 in1022.0 mb - 0.00 in0.0 mm 0.00 in0.0 mm
02:10 PM 79.5°F26.4°C 38.4°F3.6°C 23% 3.5 mph S5.6 kmh S 8.1 mph13.0 kmh 30.15 in1021.0 mb - 0.00 in0.0 mm 0.00 in0.0 mm
02:15 PM 79.7°F26.5°C 37.5°F3.1°C 22% 5.8 mph SW9.3 kmh SW 8.1 mph13.0 kmh 30.15 in1021.0 mb - 0.00 in0.0 mm 0.00 in0.0 mm
02:20 PM 79.9°F26.6°C 37.6°F3.1°C 22% 8.1 mph NW13.0 kmh NW 11.5 mph18.5 kmh 30.15 in1021.0 mb - 0.00 in0.0 mm 0.00 in0.0 mm
02:25 PM 80.1°F26.7°C 35.4°F1.9°C 20% 5.8 mph NW9.3 kmh NW 10.4 mph16.7 kmh 30.15 in1021.0 mb - 0.00 in0.0 mm 0.00 in0.0 mm
02:30 PM 79.7°F26.5°C 37.5°F3.1°C 22% 3.5 mph SW5.6 kmh SW 8.1 mph13.0 kmh 30.15 in1021.0 mb - 0.00 in0.0 mm 0.00 in0.0 mm
02:35 PM 79.9°F26.6°C 37.6°F3.1°C 22% 4.6 mph NNW7.4 kmh NNW 8.1 mph13.0 kmh 30.15 in1021.0 mb - 0.00 in0.0 mm 0.00 in0.0 mm
02:40 PM 80.2°F26.8°C 37.9°F3.3°C 22% 12.7 mph NW20.4 kmh NW 16.1 mph25.9 kmh 30.15 in1021.0 mb - 0.00 in0.0 mm 0.00 in0.0 mm
02:45 PM 79.9°F26.6°C 37.6°F3.1°C 22% 2.3 mph SW3.7 kmh SW 5.8 mph9.3 kmh 30.15 in1021.0 mb - 0.00 in0.0 mm 0.00 in0.0 mm
02:50 PM 80.1°F26.7°C 37.8°F3.2°C 22% 4.6 mph WNW7.4 kmh WNW 5.8 mph9.3 kmh 30.15 in1021.0 mb - 0.00 in0.0 mm 0.00 in0.0 mm
02:55 PM 80.1°F26.7°C 36.6°F2.6°C 21% 5.8 mph NW9.3 kmh NW 6.9 mph11.1 kmh 30.15 in1021.0 mb - 0.00 in0.0 mm 0.00 in0.0 mm
03:00 PM 80.2°F26.8°C 37.9°F3.3°C 22% 2.3 mph SW3.7 kmh SW 4.6 mph7.4 kmh 30.15 in1021.0 mb - 0.00 in0.0 mm 0.00 in0.0 mm
03:10 PM 80.2°F26.8°C 36.7°F2.6°C 21% 6.9 mph NW11.1 kmh NW 9.2 mph14.8 kmh 30.12 in1020.0 mb - 0.00 in0.0 mm 0.00 in0.0 mm
03:15 PM 80.2°F26.8°C 36.7°F2.6°C 21% 1.2 mph SE1.9 kmh SE 2.3 mph3.7 kmh 30.12 in1020.0 mb - 0.00 in0.0 mm 0.00 in0.0 mm
03:20 PM 80.4°F26.9°C 36.9°F2.7°C 21% 8.1 mph NW13.0 kmh NW 15.0 mph24.1 kmh 30.12 in1020.0 mb - 0.00 in0.0 mm 0.00 in0.0 mm
03:25 PM 80.4°F26.9°C 36.9°F2.7°C 21% 3.5 mph W5.6 kmh W 4.6 mph7.4 kmh 30.12 in1020.0 mb - 0.00 in0.0 mm 0.00 in0.0 mm
03:30 PM 80.4°F26.9°C 36.9°F2.7°C 21% 5.8 mph W9.3 kmh W 6.9 mph11.1 kmh 30.12 in1020.0 mb - 0.00 in0.0 mm 0.00 in0.0 mm
03:35 PM 80.6°F27.0°C 34.5°F1.4°C 19% 6.9 mph WNW11.1 kmh WNW 12.7 mph20.4 kmh 30.12 in1020.0 mb - 0.00 in0.0 mm 0.00 in0.0 mm
03:40 PM 80.4°F26.9°C 33.0°F0.6°C 18% 5.8 mph NW9.3 kmh NW 10.4 mph16.7 kmh 30.12 in1020.0 mb - 0.00 in0.0 mm 0.00 in0.0 mm
03:45 PM 80.4°F26.9°C 36.9°F2.7°C 21% 5.8 mph WSW9.3 kmh WSW 8.1 mph13.0 kmh 30.12 in1020.0 mb - 0.00 in0.0 mm 0.00 in0.0 mm
03:50 PM 80.6°F27.0°C 34.5°F1.4°C 19% 3.5 mph SW5.6 kmh SW 5.8 mph9.3 kmh 30.12 in1020.0 mb - 0.00 in0.0 mm 0.00 in0.0 mm
03:55 PM 80.4°F26.9°C 34.4°F1.3°C 19% 6.9 mph W11.1 kmh W 10.4 mph16.7 kmh 30.12 in1020.0 mb - 0.00 in0.0 mm 0.00 in0.0 mm
04:00 PM 80.1°F26.7°C 32.7°F0.4°C 18% 6.9 mph W11.1 kmh W 9.2 mph14.8 kmh 30.12 in1020.0 mb - 0.00 in0.0 mm 0.00 in0.0 mm
04:10 PM 80.2°F26.8°C 34.2°F1.2°C 19% 5.8 mph W9.3 kmh W 8.1 mph13.0 kmh 30.09 in1019.0 mb - 0.00 in0.0 mm 0.00 in0.0 mm
04:15 PM 80.2°F26.8°C 31.4°F-0.3°C 17% 4.6 mph E7.4 kmh E 10.4 mph16.7 kmh 30.09 in1019.0 mb - 0.00 in0.0 mm 0.00 in0.0 mm
04:20 PM 80.2°F26.8°C 34.2°F1.2°C 19% 2.3 mph S3.7 kmh S 3.5 mph5.6 kmh 30.09 in1019.0 mb - 0.00 in0.0 mm 0.00 in0.0 mm
04:25 PM 80.2°F26.8°C 34.2°F1.2°C 19% 6.9 mph W11.1 kmh W 10.4 mph16.7 kmh 30.09 in1019.0 mb - 0.00 in0.0 mm 0.00 in0.0 mm
04:30 PM 80.2°F26.8°C 29.9°F-1.2°C 16% 8.1 mph W13.0 kmh W 12.7 mph20.4 kmh 30.09 in1019.0 mb - 0.00 in0.0 mm 0.00 in0.0 mm
04:35 PM 80.1°F26.7°C 29.8°F-1.2°C 16% 2.3 mph W3.7 kmh W 5.8 mph9.3 kmh 30.09 in1019.0 mb - 0.00 in0.0 mm 0.00 in0.0 mm
04:40 PM 80.1°F26.7°C 31.3°F-0.4°C 17% 4.6 mph NW7.4 kmh NW 8.1 mph13.0 kmh 30.09 in1019.0 mb - 0.00 in0.0 mm 0.00 in0.0 mm
04:45 PM 80.2°F26.8°C 31.4°F-0.3°C 17% 2.3 mph SW3.7 kmh SW 5.8 mph9.3 kmh 30.09 in1019.0 mb - 0.00 in0.0 mm 0.00 in0.0 mm
04:50 PM 80.2°F26.8°C 29.9°F-1.2°C 16% 3.5 mph WNW5.6 kmh WNW 5.8 mph9.3 kmh 30.09 in1019.0 mb - 0.00 in0.0 mm 0.00 in0.0 mm
04:55 PM 79.9°F26.6°C 28.1°F-2.2°C 15% 5.8 mph SW9.3 kmh SW 10.4 mph16.7 kmh 30.09 in1019.0 mb - 0.00 in0.0 mm 0.00 in0.0 mm
05:00 PM 79.3°F26.3°C 30.7°F-0.7°C 17% 1.2 mph NE1.9 kmh NE 1.2 mph1.9 kmh 30.09 in1019.0 mb - 0.00 in0.0 mm 0.00 in0.0 mm
05:10 PM 78.3°F25.7°C 29.8°F-1.2°C 17% 6.9 mph NW11.1 kmh NW 9.2 mph14.8 kmh 30.06 in1017.9 mb - 0.00 in0.0 mm 0.00 in0.0 mm
05:15 PM 78.1°F25.6°C 29.7°F-1.3°C 17% 3.5 mph W5.6 kmh W 8.1 mph13.0 kmh 30.06 in1017.9 mb - 0.00 in0.0 mm 0.00 in0.0 mm
05:20 PM 77.7°F25.4°C 30.8°F-0.7°C 18% 5.8 mph N9.3 kmh N 8.1 mph13.0 kmh 30.06 in1017.9 mb - 0.00 in0.0 mm 0.00 in0.0 mm
05:25 PM 77.5°F25.3°C 29.3°F-1.5°C 17% 2.3 mph WNW3.7 kmh WNW 5.8 mph9.3 kmh 30.06 in1017.9 mb - 0.00 in0.0 mm 0.00 in0.0 mm
05:30 PM 77.2°F25.1°C 30.4°F-0.9°C 18% 2.3 mph W3.7 kmh W 4.6 mph7.4 kmh 30.06 in1017.9 mb - 0.00 in0.0 mm 0.00 in0.0 mm
05:35 PM 76.8°F24.9°C 32.7°F0.4°C 20% Calm Calm 1.2 mph1.9 kmh 30.06 in1017.9 mb - 0.00 in0.0 mm 0.00 in0.0 mm
05:40 PM 76.5°F24.7°C 32.4°F0.2°C 20% 1.2 mph N1.9 kmh N 3.5 mph5.6 kmh 30.06 in1017.9 mb - 0.00 in0.0 mm 0.00 in0.0 mm
05:45 PM 76.1°F24.5°C 34.5°F1.4°C 22% 3.5 mph NW5.6 kmh NW 5.8 mph9.3 kmh 30.06 in1017.9 mb - 0.00 in0.0 mm 0.00 in0.0 mm
05:50 PM 75.9°F24.4°C 35.4°F1.9°C 23% 2.3 mph SW3.7 kmh SW 3.5 mph5.6 kmh 30.06 in1017.9 mb - 0.00 in0.0 mm 0.00 in0.0 mm
05:55 PM 75.6°F24.2°C 35.1°F1.7°C 23% 4.6 mph NNW7.4 kmh NNW 6.9 mph11.1 kmh 30.06 in1017.9 mb - 0.00 in0.0 mm 0.00 in0.0 mm
06:00 PM 75.4°F24.1°C 36.1°F2.3°C 24% 1.2 mph W1.9 kmh W 2.3 mph3.7 kmh 30.06 in1017.9 mb - 0.00 in0.0 mm 0.00 in0.0 mm
06:10 PM 74.8°F23.8°C 36.6°F2.6°C 25% 3.5 mph SW5.6 kmh SW 4.6 mph7.4 kmh 30.06 in1017.9 mb - 0.00 in0.0 mm 0.00 in0.0 mm
06:15 PM 74.5°F23.6°C 36.3°F2.4°C 25% 2.3 mph NW3.7 kmh NW 3.5 mph5.6 kmh 30.06 in1017.9 mb - 0.00 in0.0 mm 0.00 in0.0 mm
06:20 PM 74.3°F23.5°C 36.2°F2.3°C 25% 1.2 mph SW1.9 kmh SW 4.6 mph7.4 kmh 30.06 in1017.9 mb - 0.00 in0.0 mm 0.00 in0.0 mm
06:25 PM 74.1°F23.4°C 36.0°F2.2°C 25% Calm Calm 2.3 mph3.7 kmh 30.06 in1017.9 mb - 0.00 in0.0 mm 0.00 in0.0 mm
06:30 PM 73.8°F23.2°C 36.7°F2.6°C 26% Calm Calm 1.2 mph1.9 kmh 30.06 in1017.9 mb - 0.00 in0.0 mm 0.00 in0.0 mm
06:35 PM 73.4°F23.0°C 36.4°F2.4°C 26% 1.2 mph E1.9 kmh E 1.2 mph1.9 kmh 30.06 in1017.9 mb - 0.00 in0.0 mm 0.00 in0.0 mm
06:40 PM 72.7°F22.6°C 33.8°F1.0°C 24% Calm Calm -- 30.06 in1017.9 mb - 0.00 in0.0 mm 0.00 in0.0 mm
06:45 PM 72.1°F22.3°C 33.3°F0.7°C 24% Calm Calm -- 30.06 in1017.9 mb - 0.00 in0.0 mm 0.00 in0.0 mm
06:50 PM 71.4°F21.9°C 34.7°F1.5°C 26% Calm Calm -- 30.06 in1017.9 mb - 0.00 in0.0 mm 0.00 in0.0 mm
06:55 PM 70.9°F21.6°C 35.2°F1.8°C 27% Calm Calm -- 30.06 in1017.9 mb - 0.00 in0.0 mm 0.00 in0.0 mm
07:00 PM 70.3°F21.3°C 35.7°F2.1°C 28% Calm Calm 1.2 mph1.9 kmh 30.06 in1017.9 mb - 0.00 in0.0 mm 0.00 in0.0 mm
07:10 PM 68.9°F20.5°C 38.6°F3.7°C 33% 1.2 mph NW1.9 kmh NW 2.3 mph3.7 kmh 30.03 in1016.9 mb - 0.00 in0.0 mm 0.00 in0.0 mm
07:15 PM 68.2°F20.1°C 38.0°F3.3°C 33% 1.2 mph NW1.9 kmh NW 3.5 mph5.6 kmh 30.03 in1016.9 mb - 0.00 in0.0 mm 0.00 in0.0 mm
07:20 PM 67.5°F19.7°C 38.8°F3.8°C 35% 1.2 mph NW1.9 kmh NW 3.5 mph5.6 kmh 30.03 in1016.9 mb - 0.00 in0.0 mm 0.00 in0.0 mm
07:25 PM 66.6°F19.2°C 38.8°F3.8°C 36% 2.3 mph WNW3.7 kmh WNW 3.5 mph5.6 kmh 30.03 in1016.9 mb - 0.00 in0.0 mm 0.00 in0.0 mm
07:30 PM 65.9°F18.8°C 39.5°F4.2°C 38% 3.5 mph NW5.6 kmh NW 5.8 mph9.3 kmh 30.03 in1016.9 mb - 0.00 in0.0 mm 0.00 in0.0 mm
07:35 PM 65.3°F18.5°C 39.0°F3.9°C 38% 3.5 mph NW5.6 kmh NW 4.6 mph7.4 kmh 30.03 in1016.9 mb - 0.00 in0.0 mm 0.00 in0.0 mm
07:40 PM 64.9°F18.3°C 39.4°F4.1°C 39% 3.5 mph WNW5.6 kmh WNW 3.5 mph5.6 kmh 30.03 in1016.9 mb - 0.00 in0.0 mm 0.00 in0.0 mm
07:45 PM 64.4°F18.0°C 39.5°F4.2°C 40% 3.5 mph NW5.6 kmh NW 5.8 mph9.3 kmh 30.03 in1016.9 mb - 0.00 in0.0 mm 0.00 in0.0 mm
07:50 PM 64.0°F17.8°C 39.2°F4.0°C 40% 3.5 mph W5.6 kmh W 5.8 mph9.3 kmh 30.03 in1016.9 mb - 0.00 in0.0 mm 0.00 in0.0 mm
07:55 PM 63.7°F17.6°C 39.5°F4.2°C 41% 4.6 mph W7.4 kmh W 5.8 mph9.3 kmh 30.03 in1016.9 mb - 0.00 in0.0 mm 0.00 in0.0 mm
08:00 PM 63.3°F17.4°C 39.2°F4.0°C 41% 4.6 mph NW7.4 kmh NW 5.8 mph9.3 kmh 30.03 in1016.9 mb - 0.00 in0.0 mm 0.00 in0.0 mm
08:10 PM 63.0°F17.2°C 38.3°F3.5°C 40% 4.6 mph W7.4 kmh W 5.8 mph9.3 kmh 30.03 in1016.9 mb - 0.00 in0.0 mm 0.00 in0.0 mm
08:15 PM 62.8°F17.1°C 38.7°F3.7°C 41% 5.8 mph W9.3 kmh W 5.8 mph9.3 kmh 30.03 in1016.9 mb - 0.00 in0.0 mm 0.00 in0.0 mm
08:20 PM 62.3°F16.8°C 38.9°F3.8°C 42% 5.8 mph W9.3 kmh W 6.9 mph11.1 kmh 30.03 in1016.9 mb - 0.00 in0.0 mm 0.00 in0.0 mm
08:25 PM 61.9°F16.6°C 39.1°F3.9°C 43% 6.9 mph W11.1 kmh W 8.1 mph13.0 kmh 30.03 in1016.9 mb - 0.00 in0.0 mm 0.00 in0.0 mm
08:30 PM 61.3°F16.3°C 39.2°F4.0°C 44% 2.3 mph W3.7 kmh W 4.6 mph7.4 kmh 30.03 in1016.9 mb - 0.00 in0.0 mm 0.00 in0.0 mm
08:35 PM 60.8°F16.0°C 39.3°F4.1°C 45% 3.5 mph W5.6 kmh W 5.8 mph9.3 kmh 30.03 in1016.9 mb - 0.00 in0.0 mm 0.00 in0.0 mm
08:40 PM 60.1°F15.6°C 40.3°F4.6°C 48% 5.8 mph W9.3 kmh W 6.9 mph11.1 kmh 30.03 in1016.9 mb - 0.00 in0.0 mm 0.00 in0.0 mm
08:45 PM 59.7°F15.4°C 40.0°F4.4°C 48% 3.5 mph W5.6 kmh W 5.8 mph9.3 kmh 30.03 in1016.9 mb - 0.00 in0.0 mm 0.00 in0.0 mm
08:50 PM 59.4°F15.2°C 40.2°F4.6°C 49% 3.5 mph SW5.6 kmh SW 5.8 mph9.3 kmh 30.03 in1016.9 mb - 0.00 in0.0 mm 0.00 in0.0 mm
08:55 PM 59.0°F15.0°C 40.4°F4.7°C 50% 3.5 mph NW5.6 kmh NW 5.8 mph9.3 kmh 30.03 in1016.9 mb - 0.00 in0.0 mm 0.00 in0.0 mm
09:00 PM 58.6°F14.8°C 41.1°F5.1°C 52% 3.5 mph W5.6 kmh W 5.8 mph9.3 kmh 30.03 in1016.9 mb - 0.00 in0.0 mm 0.00 in0.0 mm
09:10 PM 57.7°F14.3°C 40.7°F4.8°C 53% 3.5 mph W5.6 kmh W 5.8 mph9.3 kmh 30.06 in1017.9 mb - 0.00 in0.0 mm 0.00 in0.0 mm
09:15 PM 57.4°F14.1°C 40.4°F4.7°C 53% 3.5 mph W5.6 kmh W 5.8 mph9.3 kmh 30.06 in1017.9 mb - 0.00 in0.0 mm 0.00 in0.0 mm
09:20 PM 57.0°F13.9°C 41.0°F5.0°C 55% 3.5 mph W5.6 kmh W 4.6 mph7.4 kmh 30.06 in1017.9 mb - 0.00 in0.0 mm 0.00 in0.0 mm
09:25 PM 56.8°F13.8°C 40.8°F4.9°C 55% 3.5 mph WNW5.6 kmh WNW 4.6 mph7.4 kmh 30.06 in1017.9 mb - 0.00 in0.0 mm 0.00 in0.0 mm
09:30 PM 56.5°F13.6°C 40.5°F4.7°C 55% 2.3 mph W3.7 kmh W 4.6 mph7.4 kmh 30.06 in1017.9 mb - 0.00 in0.0 mm 0.00 in0.0 mm
09:35 PM 56.3°F13.5°C 40.3°F4.6°C 55% 3.5 mph W5.6 kmh W 5.8 mph9.3 kmh 30.06 in1017.9 mb - 0.00 in0.0 mm 0.00 in0.0 mm
09:40 PM 56.0°F13.3°C 40.0°F4.4°C 55% 2.3 mph W3.7 kmh W 5.8 mph9.3 kmh 30.06 in1017.9 mb - 0.00 in0.0 mm 0.00 in0.0 mm
09:45 PM 55.8°F13.2°C 40.3°F4.6°C 56% 2.3 mph W3.7 kmh W 3.5 mph5.6 kmh 30.06 in1017.9 mb - 0.00 in0.0 mm 0.00 in0.0 mm
09:50 PM 55.4°F13.0°C 40.0°F4.4°C 56% 1.2 mph WNW1.9 kmh WNW 3.5 mph5.6 kmh 30.06 in1017.9 mb - 0.00 in0.0 mm 0.00 in0.0 mm
09:55 PM 55.0°F12.8°C 39.6°F4.2°C 56% 3.5 mph SSW5.6 kmh SSW 5.8 mph9.3 kmh 30.06 in1017.9 mb - 0.00 in0.0 mm 0.00 in0.0 mm
10:00 PM 54.9°F12.7°C 39.9°F4.4°C 57% 5.8 mph NW9.3 kmh NW 10.4 mph16.7 kmh 30.06 in1017.9 mb - 0.00 in0.0 mm 0.00 in0.0 mm
10:10 PM 54.9°F12.7°C 40.4°F4.7°C 58% 6.9 mph W11.1 kmh W 8.1 mph13.0 kmh 30.06 in1017.9 mb - 0.00 in0.0 mm 0.00 in0.0 mm
10:15 PM 54.9°F12.7°C 40.4°F4.7°C 58% 8.1 mph NW13.0 kmh NW 9.2 mph14.8 kmh 30.06 in1017.9 mb - 0.00 in0.0 mm 0.00 in0.0 mm
10:20 PM 54.9°F12.7°C 39.9°F4.4°C 57% 8.1 mph W13.0 kmh W 10.4 mph16.7 kmh 30.06 in1017.9 mb - 0.00 in0.0 mm 0.00 in0.0 mm
10:25 PM 54.9°F12.7°C 39.9°F4.4°C 57% 3.5 mph W5.6 kmh W 8.1 mph13.0 kmh 30.06 in1017.9 mb - 0.00 in0.0 mm 0.00 in0.0 mm
10:30 PM 54.7°F12.6°C 39.7°F4.3°C 57% 2.3 mph W3.7 kmh W 3.5 mph5.6 kmh 30.06 in1017.9 mb - 0.00 in0.0 mm 0.00 in0.0 mm
10:35 PM 54.7°F12.6°C 39.7°F4.3°C 57% 6.9 mph W11.1 kmh W 8.1 mph13.0 kmh 30.06 in1017.9 mb - 0.00 in0.0 mm 0.00 in0.0 mm
10:40 PM 54.7°F12.6°C 39.7°F4.3°C 57% 4.6 mph WSW7.4 kmh WSW 8.1 mph13.0 kmh 30.06 in1017.9 mb - 0.00 in0.0 mm 0.00 in0.0 mm
10:45 PM 54.2°F12.3°C 39.2°F4.0°C 57% 3.5 mph SW5.6 kmh SW 4.6 mph7.4 kmh 30.06 in1017.9 mb - 0.00 in0.0 mm 0.00 in0.0 mm
10:50 PM 54.0°F12.2°C 39.1°F3.9°C 57% 1.2 mph W1.9 kmh W 4.6 mph7.4 kmh 30.06 in1017.9 mb - 0.00 in0.0 mm 0.00 in0.0 mm
10:55 PM 53.6°F12.0°C 38.7°F3.7°C 57% 3.5 mph W5.6 kmh W 5.8 mph9.3 kmh 30.06 in1017.9 mb - 0.00 in0.0 mm 0.00 in0.0 mm
11:00 PM 53.4°F11.9°C 39.4°F4.1°C 59% 3.5 mph W5.6 kmh W 8.1 mph13.0 kmh 30.06 in1017.9 mb - 0.00 in0.0 mm 0.00 in0.0 mm
11:10 PM 53.2°F11.8°C 39.7°F4.3°C 60% 5.8 mph NW9.3 kmh NW 9.2 mph14.8 kmh 30.06 in1017.9 mb - 0.00 in0.0 mm 0.00 in0.0 mm
11:15 PM 53.1°F11.7°C 39.5°F4.2°C 60% 3.5 mph W5.6 kmh W 4.6 mph7.4 kmh 30.06 in1017.9 mb - 0.00 in0.0 mm 0.00 in0.0 mm
11:20 PM 52.9°F11.6°C 38.9°F3.8°C 59% 3.5 mph W5.6 kmh W 5.8 mph9.3 kmh 30.06 in1017.9 mb - 0.00 in0.0 mm 0.00 in0.0 mm
11:25 PM 52.5°F11.4°C 39.0°F3.9°C 60% 3.5 mph W5.6 kmh W 5.8 mph9.3 kmh 30.06 in1017.9 mb - 0.00 in0.0 mm 0.00 in0.0 mm
11:30 PM 52.3°F11.3°C 39.3°F4.1°C 61% 3.5 mph W5.6 kmh W 4.6 mph7.4 kmh 30.06 in1017.9 mb - 0.00 in0.0 mm 0.00 in0.0 mm
11:35 PM 52.0°F11.1°C 39.4°F4.1°C 62% 3.5 mph W5.6 kmh W 5.8 mph9.3 kmh 30.06 in1017.9 mb - 0.00 in0.0 mm 0.00 in0.0 mm
11:40 PM 51.8°F11.0°C 39.2°F4.0°C 62% 4.6 mph NW7.4 kmh NW 8.1 mph13.0 kmh 30.06 in1017.9 mb - 0.00 in0.0 mm 0.00 in0.0 mm
11:45 PM 51.8°F11.0°C 39.2°F4.0°C 62% 4.6 mph NW7.4 kmh NW 6.9 mph11.1 kmh 30.06 in1017.9 mb - 0.00 in0.0 mm 0.00 in0.0 mm
11:50 PM 51.6°F10.9°C 39.4°F4.1°C 63% 3.5 mph NW5.6 kmh NW 5.8 mph9.3 kmh 30.06 in1017.9 mb - 0.00 in0.0 mm 0.00 in0.0 mm
11:55 PM 51.6°F10.9°C 39.8°F4.3°C 64% 5.8 mph W9.3 kmh W 8.1 mph13.0 kmh 30.06 in1017.9 mb - 0.00 in0.0 mm 0.00 in0.0 mm